sensor_id;sensor_type;location;lat;lon;timestamp;P1;durP1;ratioP1;P2;durP2;ratioP2
17592;SDS011;8915;51.760;14.300;2023-05-16T00:02:18;8.47;;;7.37;;
17592;SDS011;8915;51.760;14.300;2023-05-16T00:04:44;9.30;;;7.27;;
17592;SDS011;8915;51.760;14.300;2023-05-16T00:07:12;8.53;;;7.30;;
17592;SDS011;8915;51.760;14.300;2023-05-16T00:09:39;9.03;;;8.03;;
17592;SDS011;8915;51.760;14.300;2023-05-16T00:12:06;8.77;;;7.87;;
17592;SDS011;8915;51.760;14.300;2023-05-16T00:14:32;7.97;;;7.17;;
17592;SDS011;8915;51.760;14.300;2023-05-16T00:16:59;8.27;;;7.47;;
17592;SDS011;8915;51.760;14.300;2023-05-16T00:19:26;8.00;;;7.20;;
17592;SDS011;8915;51.760;14.300;2023-05-16T00:21:54;7.70;;;6.87;;
17592;SDS011;8915;51.760;14.300;2023-05-16T00:24:21;8.00;;;6.93;;
17592;SDS011;8915;51.760;14.300;2023-05-16T00:26:48;8.90;;;7.97;;
17592;SDS011;8915;51.760;14.300;2023-05-16T00:29:14;8.57;;;7.67;;
17592;SDS011;8915;51.760;14.300;2023-05-16T00:31:40;8.67;;;7.87;;
17592;SDS011;8915;51.760;14.300;2023-05-16T00:34:07;10.10;;;7.63;;
17592;SDS011;8915;51.760;14.300;2023-05-16T00:36:34;8.80;;;7.90;;
17592;SDS011;8915;51.760;14.300;2023-05-16T00:39:01;8.70;;;7.77;;
17592;SDS011;8915;51.760;14.300;2023-05-16T00:41:29;8.77;;;7.87;;
17592;SDS011;8915;51.760;14.300;2023-05-16T00:43:56;9.97;;;8.80;;
17592;SDS011;8915;51.760;14.300;2023-05-16T00:46:22;8.57;;;7.67;;
17592;SDS011;8915;51.760;14.300;2023-05-16T00:48:50;8.60;;;7.60;;
17592;SDS011;8915;51.760;14.300;2023-05-16T00:51:16;8.57;;;7.53;;
17592;SDS011;8915;51.760;14.300;2023-05-16T00:53:43;9.13;;;8.20;;
17592;SDS011;8915;51.760;14.300;2023-05-16T00:56:10;8.60;;;7.80;;
17592;SDS011;8915;51.760;14.300;2023-05-16T00:58:38;8.87;;;7.70;;
17592;SDS011;8915;51.760;14.300;2023-05-16T01:01:04;9.47;;;7.97;;
17592;SDS011;8915;51.760;14.300;2023-05-16T01:03:31;9.27;;;8.37;;
17592;SDS011;8915;51.760;14.300;2023-05-16T01:05:58;8.37;;;7.17;;
17592;SDS011;8915;51.760;14.300;2023-05-16T01:08:25;8.73;;;7.83;;
17592;SDS011;8915;51.760;14.300;2023-05-16T01:10:54;9.67;;;8.50;;
17592;SDS011;8915;51.760;14.300;2023-05-16T01:13:29;10.20;;;7.77;;
17592;SDS011;8915;51.760;14.300;2023-05-16T01:16:04;9.00;;;7.90;;
17592;SDS011;8915;51.760;14.300;2023-05-16T01:18:40;9.23;;;8.33;;
17592;SDS011;8915;51.760;14.300;2023-05-16T01:21:11;10.20;;;7.77;;
17592;SDS011;8915;51.760;14.300;2023-05-16T01:23:48;10.00;;;8.50;;
17592;SDS011;8915;51.760;14.300;2023-05-16T01:26:20;10.33;;;8.70;;
17592;SDS011;8915;51.760;14.300;2023-05-16T01:28:48;9.87;;;8.87;;
17592;SDS011;8915;51.760;14.300;2023-05-16T01:31:17;9.97;;;8.97;;
17592;SDS011;8915;51.760;14.300;2023-05-16T01:33:43;10.50;;;9.37;;
17592;SDS011;8915;51.760;14.300;2023-05-16T01:36:12;10.00;;;9.00;;
17592;SDS011;8915;51.760;14.300;2023-05-16T01:38:48;12.50;;;9.97;;
17592;SDS011;8915;51.760;14.300;2023-05-16T01:41:37;11.30;;;9.47;;
17592;SDS011;8915;51.760;14.300;2023-05-16T01:44:10;12.13;;;9.93;;
17592;SDS011;8915;51.760;14.300;2023-05-16T01:46:44;11.67;;;9.97;;
17592;SDS011;8915;51.760;14.300;2023-05-16T01:49:14;12.50;;;11.20;;
17592;SDS011;8915;51.760;14.300;2023-05-16T01:51:47;10.80;;;9.70;;
17592;SDS011;8915;51.760;14.300;2023-05-16T01:54:17;12.50;;;10.43;;
17592;SDS011;8915;51.760;14.300;2023-05-16T01:56:48;11.00;;;9.90;;
17592;SDS011;8915;51.760;14.300;2023-05-16T01:59:18;11.67;;;10.23;;
17592;SDS011;8915;51.760;14.300;2023-05-16T02:01:45;12.53;;;10.07;;
17592;SDS011;8915;51.760;14.300;2023-05-16T02:04:12;11.20;;;10.07;;
17592;SDS011;8915;51.760;14.300;2023-05-16T02:06:40;11.30;;;10.17;;
17592;SDS011;8915;51.760;14.300;2023-05-16T02:09:07;10.77;;;9.60;;
17592;SDS011;8915;51.760;14.300;2023-05-16T02:11:33;11.70;;;10.40;;
17592;SDS011;8915;51.760;14.300;2023-05-16T02:14:01;11.23;;;9.93;;
17592;SDS011;8915;51.760;14.300;2023-05-16T02:16:28;11.17;;;10.07;;
17592;SDS011;8915;51.760;14.300;2023-05-16T02:18:57;10.53;;;9.43;;
17592;SDS011;8915;51.760;14.300;2023-05-16T02:21:23;10.23;;;9.20;;
17592;SDS011;8915;51.760;14.300;2023-05-16T02:23:50;10.43;;;8.77;;
17592;SDS011;8915;51.760;14.300;2023-05-16T02:26:16;9.87;;;8.60;;
17592;SDS011;8915;51.760;14.300;2023-05-16T02:28:42;10.83;;;8.37;;
17592;SDS011;8915;51.760;14.300;2023-05-16T02:31:10;9.80;;;8.80;;
17592;SDS011;8915;51.760;14.300;2023-05-16T02:33:37;9.60;;;8.60;;
17592;SDS011;8915;51.760;14.300;2023-05-16T02:36:03;9.10;;;8.20;;
17592;SDS011;8915;51.760;14.300;2023-05-16T02:38:30;10.57;;;8.70;;
17592;SDS011;8915;51.760;14.300;2023-05-16T02:40:56;9.03;;;8.13;;
17592;SDS011;8915;51.760;14.300;2023-05-16T02:43:22;9.30;;;8.37;;
17592;SDS011;8915;51.760;14.300;2023-05-16T02:45:49;9.57;;;8.57;;
17592;SDS011;8915;51.760;14.300;2023-05-16T02:48:16;11.80;;;9.67;;
17592;SDS011;8915;51.760;14.300;2023-05-16T02:50:43;10.40;;;9.30;;
17592;SDS011;8915;51.760;14.300;2023-05-16T02:53:09;9.53;;;8.53;;
17592;SDS011;8915;51.760;14.300;2023-05-16T02:55:36;9.30;;;8.37;;
17592;SDS011;8915;51.760;14.300;2023-05-16T02:58:02;13.23;;;9.53;;
17592;SDS011;8915;51.760;14.300;2023-05-16T03:00:29;12.40;;;9.80;;
17592;SDS011;8915;51.760;14.300;2023-05-16T03:02:55;12.87;;;10.30;;
17592;SDS011;8915;51.760;14.300;2023-05-16T03:05:23;12.27;;;10.03;;
17592;SDS011;8915;51.760;14.300;2023-05-16T03:07:49;12.23;;;9.67;;
17592;SDS011;8915;51.760;14.300;2023-05-16T03:10:16;12.93;;;10.73;;
17592;SDS011;8915;51.760;14.300;2023-05-16T03:12:44;15.07;;;11.27;;
17592;SDS011;8915;51.760;14.300;2023-05-16T03:15:11;16.17;;;11.80;;
17592;SDS011;8915;51.760;14.300;2023-05-16T03:17:37;14.57;;;12.13;;
17592;SDS011;8915;51.760;14.300;2023-05-16T03:20:04;14.67;;;11.57;;
17592;SDS011;8915;51.760;14.300;2023-05-16T03:22:34;16.40;;;13.33;;
17592;SDS011;8915;51.760;14.300;2023-05-16T03:25:01;18.13;;;13.47;;
17592;SDS011;8915;51.760;14.300;2023-05-16T03:27:29;17.27;;;13.13;;
17592;SDS011;8915;51.760;14.300;2023-05-16T03:29:55;19.37;;;13.43;;
17592;SDS011;8915;51.760;14.300;2023-05-16T03:32:22;21.90;;;15.10;;
17592;SDS011;8915;51.760;14.300;2023-05-16T03:34:48;20.20;;;15.40;;
17592;SDS011;8915;51.760;14.300;2023-05-16T03:37:14;21.50;;;16.83;;
17592;SDS011;8915;51.760;14.300;2023-05-16T03:39:42;21.77;;;15.40;;
17592;SDS011;8915;51.760;14.300;2023-05-16T03:42:08;21.13;;;16.33;;
17592;SDS011;8915;51.760;14.300;2023-05-16T03:44:35;25.90;;;17.20;;
17592;SDS011;8915;51.760;14.300;2023-05-16T03:47:01;23.50;;;18.13;;
17592;SDS011;8915;51.760;14.300;2023-05-16T03:49:28;22.03;;;17.33;;
17592;SDS011;8915;51.760;14.300;2023-05-16T03:51:54;23.77;;;18.07;;
17592;SDS011;8915;51.760;14.300;2023-05-16T03:54:21;28.53;;;18.97;;
17592;SDS011;8915;51.760;14.300;2023-05-16T03:56:49;25.10;;;18.97;;
17592;SDS011;8915;51.760;14.300;2023-05-16T03:59:15;26.70;;;19.10;;
17592;SDS011;8915;51.760;14.300;2023-05-16T04:01:42;31.57;;;20.40;;
17592;SDS011;8915;51.760;14.300;2023-05-16T04:04:08;27.10;;;19.90;;
17592;SDS011;8915;51.760;14.300;2023-05-16T04:06:34;26.03;;;19.80;;
17592;SDS011;8915;51.760;14.300;2023-05-16T04:09:01;25.70;;;19.80;;
17592;SDS011;8915;51.760;14.300;2023-05-16T04:11:27;22.87;;;18.83;;
17592;SDS011;8915;51.760;14.300;2023-05-16T04:13:55;27.83;;;18.23;;
17592;SDS011;8915;51.760;14.300;2023-05-16T04:16:21;21.70;;;17.50;;
17592;SDS011;8915;51.760;14.300;2023-05-16T04:18:47;24.47;;;17.97;;
17592;SDS011;8915;51.760;14.300;2023-05-16T04:21:14;23.10;;;16.90;;
17592;SDS011;8915;51.760;14.300;2023-05-16T04:23:40;21.67;;;16.97;;
17592;SDS011;8915;51.760;14.300;2023-05-16T04:26:07;19.97;;;15.90;;
17592;SDS011;8915;51.760;14.300;2023-05-16T04:28:33;19.87;;;15.97;;
17592;SDS011;8915;51.760;14.300;2023-05-16T04:31:01;18.30;;;15.27;;
17592;SDS011;8915;51.760;14.300;2023-05-16T04:33:28;19.53;;;15.70;;
17592;SDS011;8915;51.760;14.300;2023-05-16T04:35:54;21.87;;;15.80;;
17592;SDS011;8915;51.760;14.300;2023-05-16T04:38:22;23.00;;;15.87;;
17592;SDS011;8915;51.760;14.300;2023-05-16T04:40:48;21.23;;;15.80;;
17592;SDS011;8915;51.760;14.300;2023-05-16T04:43:15;21.83;;;16.10;;
17592;SDS011;8915;51.760;14.300;2023-05-16T04:45:43;20.43;;;15.57;;
17592;SDS011;8915;51.760;14.300;2023-05-16T04:48:10;20.13;;;14.83;;
17592;SDS011;8915;51.760;14.300;2023-05-16T04:50:37;17.70;;;14.93;;
17592;SDS011;8915;51.760;14.300;2023-05-16T04:53:04;17.90;;;14.27;;
17592;SDS011;8915;51.760;14.300;2023-05-16T04:55:30;17.17;;;13.60;;
17592;SDS011;8915;51.760;14.300;2023-05-16T04:57:56;19.00;;;14.80;;
17592;SDS011;8915;51.760;14.300;2023-05-16T05:00:23;20.20;;;14.20;;
17592;SDS011;8915;51.760;14.300;2023-05-16T05:02:50;17.90;;;14.30;;
17592;SDS011;8915;51.760;14.300;2023-05-16T05:05:17;16.60;;;13.77;;
17592;SDS011;8915;51.760;14.300;2023-05-16T05:07:44;14.53;;;12.63;;
17592;SDS011;8915;51.760;14.300;2023-05-16T05:10:10;16.93;;;12.83;;
17592;SDS011;8915;51.760;14.300;2023-05-16T05:12:37;17.00;;;13.03;;
17592;SDS011;8915;51.760;14.300;2023-05-16T05:15:03;14.53;;;12.63;;
17592;SDS011;8915;51.760;14.300;2023-05-16T05:17:31;18.20;;;12.43;;
17592;SDS011;8915;51.760;14.300;2023-05-16T05:19:57;14.33;;;12.03;;
17592;SDS011;8915;51.760;14.300;2023-05-16T05:22:25;19.13;;;11.87;;
17592;SDS011;8915;51.760;14.300;2023-05-16T05:24:51;16.10;;;13.13;;
17592;SDS011;8915;51.760;14.300;2023-05-16T05:27:18;15.17;;;12.37;;
17592;SDS011;8915;51.760;14.300;2023-05-16T05:29:44;15.87;;;12.50;;
17592;SDS011;8915;51.760;14.300;2023-05-16T05:32:10;15.37;;;12.70;;
17592;SDS011;8915;51.760;14.300;2023-05-16T05:34:37;17.87;;;12.37;;
17592;SDS011;8915;51.760;14.300;2023-05-16T05:37:03;17.43;;;14.27;;
17592;SDS011;8915;51.760;14.300;2023-05-16T05:39:31;15.40;;;12.13;;
17592;SDS011;8915;51.760;14.300;2023-05-16T05:41:57;16.40;;;12.80;;
17592;SDS011;8915;51.760;14.300;2023-05-16T05:44:26;17.10;;;13.90;;
17592;SDS011;8915;51.760;14.300;2023-05-16T05:46:52;18.67;;;12.60;;
17592;SDS011;8915;51.760;14.300;2023-05-16T05:49:19;16.83;;;12.33;;
17592;SDS011;8915;51.760;14.300;2023-05-16T05:51:46;17.63;;;12.20;;
17592;SDS011;8915;51.760;14.300;2023-05-16T05:54:15;17.60;;;12.10;;
17592;SDS011;8915;51.760;14.300;2023-05-16T05:56:43;16.20;;;12.70;;
17592;SDS011;8915;51.760;14.300;2023-05-16T05:59:10;16.83;;;13.00;;
17592;SDS011;8915;51.760;14.300;2023-05-16T06:01:36;16.40;;;13.60;;
17592;SDS011;8915;51.760;14.300;2023-05-16T06:04:03;17.57;;;13.17;;
17592;SDS011;8915;51.760;14.300;2023-05-16T06:06:30;16.80;;;12.00;;
17592;SDS011;8915;51.760;14.300;2023-05-16T06:08:56;18.13;;;13.07;;
17592;SDS011;8915;51.760;14.300;2023-05-16T06:11:23;16.43;;;12.37;;
17592;SDS011;8915;51.760;14.300;2023-05-16T06:13:51;15.33;;;11.40;;
17592;SDS011;8915;51.760;14.300;2023-05-16T06:16:18;15.83;;;12.27;;
17592;SDS011;8915;51.760;14.300;2023-05-16T06:18:44;14.83;;;11.53;;
17592;SDS011;8915;51.760;14.300;2023-05-16T06:21:12;15.43;;;12.80;;
17592;SDS011;8915;51.760;14.300;2023-05-16T06:23:39;15.63;;;12.33;;
17592;SDS011;8915;51.760;14.300;2023-05-16T06:26:05;15.90;;;12.53;;
17592;SDS011;8915;51.760;14.300;2023-05-16T06:28:32;15.47;;;12.40;;
17592;SDS011;8915;51.760;14.300;2023-05-16T06:30:59;20.00;;;12.37;;
17592;SDS011;8915;51.760;14.300;2023-05-16T06:33:26;16.87;;;13.33;;
17592;SDS011;8915;51.760;14.300;2023-05-16T06:35:52;16.87;;;12.83;;
17592;SDS011;8915;51.760;14.300;2023-05-16T06:38:19;14.60;;;11.20;;
17592;SDS011;8915;51.760;14.300;2023-05-16T06:40:45;14.17;;;10.97;;
17592;SDS011;8915;51.760;14.300;2023-05-16T06:43:12;13.53;;;10.47;;
17592;SDS011;8915;51.760;14.300;2023-05-16T06:45:38;14.53;;;11.00;;
17592;SDS011;8915;51.760;14.300;2023-05-16T06:48:06;16.40;;;12.03;;
17592;SDS011;8915;51.760;14.300;2023-05-16T06:50:32;15.13;;;10.87;;
17592;SDS011;8915;51.760;14.300;2023-05-16T06:52:59;13.83;;;11.10;;
17592;SDS011;8915;51.760;14.300;2023-05-16T06:55:25;12.10;;;10.20;;
17592;SDS011;8915;51.760;14.300;2023-05-16T06:57:52;13.27;;;11.30;;
17592;SDS011;8915;51.760;14.300;2023-05-16T07:00:18;16.30;;;11.57;;
17592;SDS011;8915;51.760;14.300;2023-05-16T07:02:45;15.33;;;11.20;;
17592;SDS011;8915;51.760;14.300;2023-05-16T07:05:13;14.23;;;10.90;;
17592;SDS011;8915;51.760;14.300;2023-05-16T07:07:40;15.07;;;10.97;;
17592;SDS011;8915;51.760;14.300;2023-05-16T07:10:07;14.50;;;11.17;;
17592;SDS011;8915;51.760;14.300;2023-05-16T07:12:34;14.70;;;11.40;;
17592;SDS011;8915;51.760;14.300;2023-05-16T07:15:01;14.90;;;10.80;;
17592;SDS011;8915;51.760;14.300;2023-05-16T07:17:28;13.53;;;10.93;;
17592;SDS011;8915;51.760;14.300;2023-05-16T07:19:54;15.70;;;10.33;;
17592;SDS011;8915;51.760;14.300;2023-05-16T07:22:22;16.43;;;11.30;;
17592;SDS011;8915;51.760;14.300;2023-05-16T07:24:48;12.47;;;10.37;;
17592;SDS011;8915;51.760;14.300;2023-05-16T07:27:17;14.20;;;10.83;;
17592;SDS011;8915;51.760;14.300;2023-05-16T07:29:43;12.73;;;9.93;;
17592;SDS011;8915;51.760;14.300;2023-05-16T07:32:09;14.57;;;10.60;;
17592;SDS011;8915;51.760;14.300;2023-05-16T07:34:36;12.93;;;10.87;;
17592;SDS011;8915;51.760;14.300;2023-05-16T07:37:02;13.30;;;9.87;;
17592;SDS011;8915;51.760;14.300;2023-05-16T07:39:30;11.37;;;9.60;;
17592;SDS011;8915;51.760;14.300;2023-05-16T07:41:56;14.17;;;9.83;;
17592;SDS011;8915;51.760;14.300;2023-05-16T07:44:23;12.70;;;9.70;;
17592;SDS011;8915;51.760;14.300;2023-05-16T07:46:49;12.47;;;9.07;;
17592;SDS011;8915;51.760;14.300;2023-05-16T07:49:15;15.80;;;10.07;;
17592;SDS011;8915;51.760;14.300;2023-05-16T07:51:42;11.80;;;9.70;;
17592;SDS011;8915;51.760;14.300;2023-05-16T07:54:08;12.07;;;9.67;;
17592;SDS011;8915;51.760;14.300;2023-05-16T07:56:36;10.97;;;8.83;;
17592;SDS011;8915;51.760;14.300;2023-05-16T07:59:02;14.83;;;9.60;;
17592;SDS011;8915;51.760;14.300;2023-05-16T08:01:29;12.40;;;9.37;;
17592;SDS011;8915;51.760;14.300;2023-05-16T08:03:56;11.40;;;9.00;;
17592;SDS011;8915;51.760;14.300;2023-05-16T08:06:22;13.70;;;9.60;;
17592;SDS011;8915;51.760;14.300;2023-05-16T08:08:49;12.10;;;9.17;;
17592;SDS011;8915;51.760;14.300;2023-05-16T08:11:15;11.33;;;8.87;;
17592;SDS011;8915;51.760;14.300;2023-05-16T08:13:44;9.97;;;8.50;;
17592;SDS011;8915;51.760;14.300;2023-05-16T08:16:10;9.83;;;8.13;;
17592;SDS011;8915;51.760;14.300;2023-05-16T08:18:36;10.87;;;8.13;;
17592;SDS011;8915;51.760;14.300;2023-05-16T08:21:03;9.30;;;8.00;;
17592;SDS011;8915;51.760;14.300;2023-05-16T08:23:30;12.20;;;8.20;;
17592;SDS011;8915;51.760;14.300;2023-05-16T08:25:56;11.83;;;7.90;;
17592;SDS011;8915;51.760;14.300;2023-05-16T08:28:22;11.33;;;7.50;;
17592;SDS011;8915;51.760;14.300;2023-05-16T08:30:50;10.23;;;7.57;;
17592;SDS011;8915;51.760;14.300;2023-05-16T08:33:17;9.37;;;7.30;;
17592;SDS011;8915;51.760;14.300;2023-05-16T08:35:43;9.57;;;7.07;;
17592;SDS011;8915;51.760;14.300;2023-05-16T08:38:10;12.33;;;7.27;;
17592;SDS011;8915;51.760;14.300;2023-05-16T08:40:36;9.73;;;6.60;;
17592;SDS011;8915;51.760;14.300;2023-05-16T08:43:03;10.63;;;7.17;;
17592;SDS011;8915;51.760;14.300;2023-05-16T08:45:29;11.20;;;7.33;;
17592;SDS011;8915;51.760;14.300;2023-05-16T08:47:57;12.77;;;8.47;;
17592;SDS011;8915;51.760;14.300;2023-05-16T08:50:26;11.60;;;7.93;;
17592;SDS011;8915;51.760;14.300;2023-05-16T08:52:56;12.23;;;8.40;;
17592;SDS011;8915;51.760;14.300;2023-05-16T08:55:22;11.67;;;7.70;;
17592;SDS011;8915;51.760;14.300;2023-05-16T08:57:51;12.87;;;7.37;;
17592;SDS011;8915;51.760;14.300;2023-05-16T09:00:18;9.17;;;6.90;;
17592;SDS011;8915;51.760;14.300;2023-05-16T09:02:45;11.60;;;7.70;;
17592;SDS011;8915;51.760;14.300;2023-05-16T09:05:14;8.70;;;7.10;;
17592;SDS011;8915;51.760;14.300;2023-05-16T09:07:43;12.10;;;7.10;;
17592;SDS011;8915;51.760;14.300;2023-05-16T09:10:11;10.53;;;7.33;;
17592;SDS011;8915;51.760;14.300;2023-05-16T09:12:38;9.57;;;6.40;;
17592;SDS011;8915;51.760;14.300;2023-05-16T09:15:06;10.47;;;8.63;;
17592;SDS011;8915;51.760;14.300;2023-05-16T09:17:33;13.40;;;8.70;;
17592;SDS011;8915;51.760;14.300;2023-05-16T09:20:07;11.53;;;7.70;;
17592;SDS011;8915;51.760;14.300;2023-05-16T09:22:35;10.80;;;6.37;;
17592;SDS011;8915;51.760;14.300;2023-05-16T09:25:02;8.23;;;6.63;;
17592;SDS011;8915;51.760;14.300;2023-05-16T09:27:29;8.07;;;6.30;;
17592;SDS011;8915;51.760;14.300;2023-05-16T09:29:57;11.30;;;6.87;;
17592;SDS011;8915;51.760;14.300;2023-05-16T09:32:23;9.97;;;6.77;;
17592;SDS011;8915;51.760;14.300;2023-05-16T09:34:51;7.33;;;6.57;;
17592;SDS011;8915;51.760;14.300;2023-05-16T09:37:18;9.43;;;6.73;;
17592;SDS011;8915;51.760;14.300;2023-05-16T09:39:47;9.50;;;6.70;;
17592;SDS011;8915;51.760;14.300;2023-05-16T09:42:14;10.70;;;6.27;;
17592;SDS011;8915;51.760;14.300;2023-05-16T09:44:41;11.17;;;6.60;;
17592;SDS011;8915;51.760;14.300;2023-05-16T09:47:12;7.80;;;6.33;;
17592;SDS011;8915;51.760;14.300;2023-05-16T09:49:40;10.90;;;6.83;;
17592;SDS011;8915;51.760;14.300;2023-05-16T09:52:06;11.77;;;7.03;;
17592;SDS011;8915;51.760;14.300;2023-05-16T09:54:33;12.67;;;7.57;;
17592;SDS011;8915;51.760;14.300;2023-05-16T09:57:01;10.97;;;6.37;;
17592;SDS011;8915;51.760;14.300;2023-05-16T09:59:28;10.87;;;6.50;;
17592;SDS011;8915;51.760;14.300;2023-05-16T10:01:56;8.33;;;6.60;;
17592;SDS011;8915;51.760;14.300;2023-05-16T10:04:24;10.77;;;7.17;;
17592;SDS011;8915;51.760;14.300;2023-05-16T10:06:50;11.13;;;6.27;;
17592;SDS011;8915;51.760;14.300;2023-05-16T10:09:19;13.50;;;7.43;;
17592;SDS011;8915;51.760;14.300;2023-05-16T10:11:47;11.07;;;6.80;;
17592;SDS011;8915;51.760;14.300;2023-05-16T10:14:17;9.27;;;6.73;;
17592;SDS011;8915;51.760;14.300;2023-05-16T10:16:45;7.43;;;5.23;;
17592;SDS011;8915;51.760;14.300;2023-05-16T10:19:12;10.73;;;6.00;;
17592;SDS011;8915;51.760;14.300;2023-05-16T10:21:40;9.13;;;5.50;;
17592;SDS011;8915;51.760;14.300;2023-05-16T10:24:13;9.83;;;6.07;;
17592;SDS011;8915;51.760;14.300;2023-05-16T10:26:46;8.80;;;5.63;;
17592;SDS011;8915;51.760;14.300;2023-05-16T10:29:13;8.57;;;5.50;;
17592;SDS011;8915;51.760;14.300;2023-05-16T10:31:41;7.37;;;5.47;;
17592;SDS011;8915;51.760;14.300;2023-05-16T10:34:07;8.07;;;5.40;;
17592;SDS011;8915;51.760;14.300;2023-05-16T10:36:34;12.23;;;5.43;;
17592;SDS011;8915;51.760;14.300;2023-05-16T10:39:01;7.17;;;5.17;;
17592;SDS011;8915;51.760;14.300;2023-05-16T10:41:28;7.70;;;5.00;;
17592;SDS011;8915;51.760;14.300;2023-05-16T10:43:55;7.03;;;5.77;;
17592;SDS011;8915;51.760;14.300;2023-05-16T10:46:23;9.30;;;5.73;;
17592;SDS011;8915;51.760;14.300;2023-05-16T10:48:51;10.73;;;5.70;;
17592;SDS011;8915;51.760;14.300;2023-05-16T10:51:33;7.70;;;5.57;;
17592;SDS011;8915;51.760;14.300;2023-05-16T10:54:04;6.03;;;5.20;;
17592;SDS011;8915;51.760;14.300;2023-05-16T10:56:33;9.20;;;5.60;;
17592;SDS011;8915;51.760;14.300;2023-05-16T10:59:00;8.83;;;5.87;;
17592;SDS011;8915;51.760;14.300;2023-05-16T11:01:27;8.07;;;5.33;;
17592;SDS011;8915;51.760;14.300;2023-05-16T11:04:06;8.27;;;5.73;;
17592;SDS011;8915;51.760;14.300;2023-05-16T11:09:26;6.17;;;5.00;;
17592;SDS011;8915;51.760;14.300;2023-05-16T11:11:53;6.63;;;5.23;;
17592;SDS011;8915;51.760;14.300;2023-05-16T11:14:22;5.83;;;5.03;;
17592;SDS011;8915;51.760;14.300;2023-05-16T11:16:50;6.57;;;4.90;;
17592;SDS011;8915;51.760;14.300;2023-05-16T11:19:29;7.57;;;5.43;;
17592;SDS011;8915;51.760;14.300;2023-05-16T11:22:10;6.40;;;5.43;;
17592;SDS011;8915;51.760;14.300;2023-05-16T11:24:52;6.93;;;4.87;;
17592;SDS011;8915;51.760;14.300;2023-05-16T11:27:20;6.00;;;4.97;;
17592;SDS011;8915;51.760;14.300;2023-05-16T11:29:48;6.00;;;5.30;;
17592;SDS011;8915;51.760;14.300;2023-05-16T11:32:17;6.97;;;5.20;;
17592;SDS011;8915;51.760;14.300;2023-05-16T11:34:46;7.80;;;5.10;;
17592;SDS011;8915;51.760;14.300;2023-05-16T11:37:13;6.53;;;5.00;;
17592;SDS011;8915;51.760;14.300;2023-05-16T11:39:41;8.23;;;5.43;;
17592;SDS011;8915;51.760;14.300;2023-05-16T11:42:08;7.67;;;5.30;;
17592;SDS011;8915;51.760;14.300;2023-05-16T11:44:34;6.40;;;5.50;;
17592;SDS011;8915;51.760;14.300;2023-05-16T11:47:01;6.53;;;5.00;;
17592;SDS011;8915;51.760;14.300;2023-05-16T11:49:28;7.20;;;5.50;;
17592;SDS011;8915;51.760;14.300;2023-05-16T11:51:55;5.40;;;4.90;;
17592;SDS011;8915;51.760;14.300;2023-05-16T11:54:22;6.07;;;5.23;;
17592;SDS011;8915;51.760;14.300;2023-05-16T11:56:49;5.10;;;4.60;;
17592;SDS011;8915;51.760;14.300;2023-05-16T11:59:16;5.87;;;4.67;;
17592;SDS011;8915;51.760;14.300;2023-05-16T12:01:44;6.07;;;5.30;;
17592;SDS011;8915;51.760;14.300;2023-05-16T12:04:14;7.57;;;4.93;;
17592;SDS011;8915;51.760;14.300;2023-05-16T12:06:41;6.20;;;4.60;;
17592;SDS011;8915;51.760;14.300;2023-05-16T12:09:11;5.13;;;4.23;;
17592;SDS011;8915;51.760;14.300;2023-05-16T12:11:40;6.10;;;4.73;;
17592;SDS011;8915;51.760;14.300;2023-05-16T12:14:08;4.53;;;4.13;;
17592;SDS011;8915;51.760;14.300;2023-05-16T12:16:37;5.50;;;4.80;;
17592;SDS011;8915;51.760;14.300;2023-05-16T12:19:06;5.43;;;4.97;;
17592;SDS011;8915;51.760;14.300;2023-05-16T12:21:34;6.40;;;4.60;;
17592;SDS011;8915;51.760;14.300;2023-05-16T12:24:01;5.60;;;5.00;;
17592;SDS011;8915;51.760;14.300;2023-05-16T12:26:30;5.40;;;4.90;;
17592;SDS011;8915;51.760;14.300;2023-05-16T12:28:57;5.27;;;4.40;;
17592;SDS011;8915;51.760;14.300;2023-05-16T12:31:27;4.80;;;4.40;;
17592;SDS011;8915;51.760;14.300;2023-05-16T12:33:55;4.37;;;3.97;;
17592;SDS011;8915;51.760;14.300;2023-05-16T12:36:21;4.90;;;4.40;;
17592;SDS011;8915;51.760;14.300;2023-05-16T12:38:49;4.73;;;3.87;;
17592;SDS011;8915;51.760;14.300;2023-05-16T12:41:16;6.27;;;4.07;;
17592;SDS011;8915;51.760;14.300;2023-05-16T12:43:44;5.03;;;4.27;;
17592;SDS011;8915;51.760;14.300;2023-05-16T12:46:11;6.33;;;4.00;;
17592;SDS011;8915;51.760;14.300;2023-05-16T12:48:37;12.53;;;8.37;;
17592;SDS011;8915;51.760;14.300;2023-05-16T12:51:12;10.13;;;6.97;;
17592;SDS011;8915;51.760;14.300;2023-05-16T12:53:40;9.53;;;7.17;;
17592;SDS011;8915;51.760;14.300;2023-05-16T12:56:08;6.03;;;4.40;;
17592;SDS011;8915;51.760;14.300;2023-05-16T12:58:35;16.93;;;11.37;;
17592;SDS011;8915;51.760;14.300;2023-05-16T13:01:02;15.50;;;10.03;;
17592;SDS011;8915;51.760;14.300;2023-05-16T13:03:29;9.00;;;4.13;;
17592;SDS011;8915;51.760;14.300;2023-05-16T13:05:56;4.27;;;3.87;;
17592;SDS011;8915;51.760;14.300;2023-05-16T13:08:23;6.47;;;3.90;;
17592;SDS011;8915;51.760;14.300;2023-05-16T13:10:49;4.67;;;3.70;;
17592;SDS011;8915;51.760;14.300;2023-05-16T13:13:16;4.63;;;3.97;;
17592;SDS011;8915;51.760;14.300;2023-05-16T13:15:43;5.23;;;4.10;;
17592;SDS011;8915;51.760;14.300;2023-05-16T13:18:10;5.10;;;3.90;;
17592;SDS011;8915;51.760;14.300;2023-05-16T13:20:37;4.67;;;4.17;;
17592;SDS011;8915;51.760;14.300;2023-05-16T13:23:03;5.03;;;3.80;;
17592;SDS011;8915;51.760;14.300;2023-05-16T13:25:30;4.53;;;3.60;;
17592;SDS011;8915;51.760;14.300;2023-05-16T13:27:56;6.20;;;5.63;;
17592;SDS011;8915;51.760;14.300;2023-05-16T13:30:22;8.27;;;6.63;;
17592;SDS011;8915;51.760;14.300;2023-05-16T13:32:49;6.00;;;5.50;;
17592;SDS011;8915;51.760;14.300;2023-05-16T13:35:17;4.63;;;4.20;;
17592;SDS011;8915;51.760;14.300;2023-05-16T13:37:43;5.70;;;3.67;;
17592;SDS011;8915;51.760;14.300;2023-05-16T13:40:10;7.27;;;3.90;;
17592;SDS011;8915;51.760;14.300;2023-05-16T13:42:37;4.50;;;4.10;;
17592;SDS011;8915;51.760;14.300;2023-05-16T13:45:04;4.30;;;3.90;;
17592;SDS011;8915;51.760;14.300;2023-05-16T13:47:31;4.43;;;3.60;;
17592;SDS011;8915;51.760;14.300;2023-05-16T13:49:57;5.77;;;3.20;;
17592;SDS011;8915;51.760;14.300;2023-05-16T13:52:29;4.20;;;3.50;;
17592;SDS011;8915;51.760;14.300;2023-05-16T13:54:55;5.07;;;3.60;;
17592;SDS011;8915;51.760;14.300;2023-05-16T13:57:22;6.63;;;3.33;;
17592;SDS011;8915;51.760;14.300;2023-05-16T13:59:48;4.23;;;3.30;;
17592;SDS011;8915;51.760;14.300;2023-05-16T14:02:15;3.73;;;3.37;;
17592;SDS011;8915;51.760;14.300;2023-05-16T14:04:41;7.40;;;4.50;;
17592;SDS011;8915;51.760;14.300;2023-05-16T14:07:08;4.87;;;3.67;;
17592;SDS011;8915;51.760;14.300;2023-05-16T14:09:36;3.97;;;3.57;;
17592;SDS011;8915;51.760;14.300;2023-05-16T14:12:03;4.77;;;3.67;;
17592;SDS011;8915;51.760;14.300;2023-05-16T14:14:31;3.47;;;3.10;;
17592;SDS011;8915;51.760;14.300;2023-05-16T14:16:57;4.50;;;3.00;;
17592;SDS011;8915;51.760;14.300;2023-05-16T14:19:24;4.60;;;3.00;;
17592;SDS011;8915;51.760;14.300;2023-05-16T14:21:50;3.20;;;2.83;;
17592;SDS011;8915;51.760;14.300;2023-05-16T14:24:17;4.80;;;3.03;;
17592;SDS011;8915;51.760;14.300;2023-05-16T14:26:44;3.50;;;2.93;;
17592;SDS011;8915;51.760;14.300;2023-05-16T14:29:11;3.93;;;2.83;;
17592;SDS011;8915;51.760;14.300;2023-05-16T14:31:38;3.93;;;3.07;;
17592;SDS011;8915;51.760;14.300;2023-05-16T14:34:04;5.87;;;3.30;;
17592;SDS011;8915;51.760;14.300;2023-05-16T14:36:31;4.27;;;3.10;;
17592;SDS011;8915;51.760;14.300;2023-05-16T14:38:57;5.10;;;3.13;;
17592;SDS011;8915;51.760;14.300;2023-05-16T14:41:24;3.17;;;2.57;;